Terminal Aerodrome Forecast
Issued by NWS

Home | Current Version | Previous Version | Text Only | Print | Product List | Glossary Off
Versions: 1 2 3 4 5 6 7 8 9 10 11 12 13 14 15 16 17 18 19 20 21 22 23

000
FTUS41 KCLE 191200 AAA
TAFFDY
TAF AMD
KFDY 191209Z 1912/2012 08005KT 3SM BR SCT002
      TEMPO 1912/1913 6SM BR
     FM191330 10006KT P6SM SCT030
     FM192200 12006KT P6SM SCT250
     FM200400 19003KT P6SM SCT200=

USA.gov is the U.S. government's official web portal to all federal, state and local government web resources and services.